createdAt,value
2022-08-05T00:01:27.678Z,21.10
2022-08-05T00:04:18.325Z,21.10
2022-08-05T00:07:21.790Z,21.10
2022-08-05T00:10:15.751Z,21.10
2022-08-05T00:13:03.927Z,21.10
2022-08-05T00:15:58.039Z,21.10
2022-08-05T00:18:50.654Z,21.10
2022-08-05T00:21:39.198Z,21.10
2022-08-05T00:24:31.552Z,21.10
2022-08-05T00:27:20.176Z,21.10
2022-08-05T00:30:16.880Z,21.10
2022-08-05T00:33:06.403Z,21.10
2022-08-05T00:36:16.400Z,21.10
2022-08-05T00:39:14.970Z,21.10
2022-08-05T00:42:04.238Z,21.10
2022-08-05T00:44:53.027Z,21.10
2022-08-05T00:47:56.833Z,21.10
2022-08-05T00:50:48.056Z,21.10
2022-08-05T00:54:01.241Z,21.00
2022-08-05T00:56:51.468Z,21.10
2022-08-05T00:59:44.700Z,21.10
2022-08-05T01:02:34.337Z,21.10
2022-08-05T01:05:22.213Z,21.00
2022-08-05T01:08:39.142Z,21.00
2022-08-05T01:11:33.580Z,21.10
2022-08-05T01:14:31.927Z,21.00
2022-08-05T01:17:28.167Z,21.10
2022-08-05T01:20:27.106Z,21.00
2022-08-05T01:23:34.975Z,21.10
2022-08-05T01:26:37.893Z,21.10
2022-08-05T01:29:35.843Z,21.00
2022-08-05T01:32:28.537Z,21.00
2022-08-05T01:35:50.756Z,21.00
2022-08-05T01:38:29.987Z,21.00
2022-08-05T01:41:21.999Z,21.00
2022-08-05T01:44:12.215Z,21.00
2022-08-05T01:47:05.702Z,21.00
2022-08-05T01:50:01.923Z,21.00
2022-08-05T01:52:54.394Z,21.00
2022-08-05T01:55:45.322Z,21.00
2022-08-05T01:58:44.699Z,21.00
2022-08-05T02:01:40.838Z,21.00
2022-08-05T02:04:35.202Z,21.00
2022-08-05T02:07:25.728Z,21.00
2022-08-05T02:10:18.957Z,21.00
2022-08-05T02:13:20.468Z,21.00
2022-08-05T02:16:22.173Z,21.00
2022-08-05T02:19:20.327Z,21.00
2022-08-05T02:22:26.710Z,21.00
2022-08-05T02:25:21.758Z,21.00
2022-08-05T02:28:11.944Z,21.00
2022-08-05T02:31:04.270Z,21.00
2022-08-05T02:34:06.339Z,20.90
2022-08-05T02:37:04.352Z,20.90
2022-08-05T02:39:55.754Z,20.90
2022-08-05T02:42:45.371Z,21.00
2022-08-05T02:45:52.150Z,21.00
2022-08-05T02:48:43.482Z,21.00
2022-08-05T02:52:02.883Z,20.90
2022-08-05T02:54:50.719Z,21.00
2022-08-05T02:58:11.320Z,20.90
2022-08-05T03:00:52.235Z,20.90
2022-08-05T03:04:02.264Z,20.90
2022-08-05T03:06:56.653Z,20.90
2022-08-05T03:09:51.509Z,20.90
2022-08-05T03:12:42.631Z,20.90
2022-08-05T03:15:31.264Z,20.90
2022-08-05T03:18:29.894Z,20.90
2022-08-05T03:21:18.288Z,20.90
2022-08-05T03:24:08.342Z,20.90
2022-08-05T03:26:56.885Z,20.90
2022-08-05T03:30:07.553Z,20.90
2022-08-05T03:32:56.441Z,20.90
2022-08-05T03:35:46.961Z,20.90
2022-08-05T03:38:37.378Z,20.90
2022-08-05T03:41:26.314Z,20.90
2022-08-05T03:44:22.151Z,20.90
2022-08-05T03:47:13.590Z,20.90
2022-08-05T03:50:02.053Z,20.90
2022-08-05T03:55:53.092Z,20.90
2022-08-05T03:56:26.933Z,20.90
2022-08-05T03:59:26.201Z,21.00
2022-08-05T04:02:37.513Z,20.90
2022-08-05T04:05:33.348Z,21.00
2022-08-05T04:08:30.005Z,21.00
2022-08-05T04:11:24.721Z,21.00
2022-08-05T04:14:34.008Z,21.00
2022-08-05T04:17:24.235Z,21.00
2022-08-05T04:20:25.593Z,21.00
2022-08-05T04:23:15.912Z,21.00
2022-08-05T04:26:05.443Z,21.10
2022-08-05T04:28:54.108Z,21.10
2022-08-05T04:31:42.836Z,21.10
2022-08-05T04:34:35.137Z,21.10
2022-08-05T04:37:31.576Z,21.10
2022-08-05T04:40:35.562Z,21.20
2022-08-05T04:43:24.027Z,21.30
2022-08-05T04:46:14.630Z,21.40
2022-08-05T04:49:17.064Z,21.50
2022-08-05T04:52:14.781Z,21.50
2022-08-05T04:55:14.240Z,21.50
2022-08-05T04:58:03.736Z,21.60
2022-08-05T05:00:52.269Z,21.60
2022-08-05T05:03:41.912Z,21.60
2022-08-05T05:06:39.418Z,21.60
2022-08-05T05:09:34.649Z,21.70
2022-08-05T05:12:27.401Z,21.70
2022-08-05T05:15:17.478Z,21.70
2022-08-05T05:18:31.354Z,21.70
2022-08-05T05:21:22.462Z,21.80
2022-08-05T05:24:15.514Z,21.80
2022-08-05T05:27:08.855Z,21.70
2022-08-05T05:30:04.327Z,21.80
2022-08-05T05:32:54.094Z,21.80
2022-08-05T05:35:43.139Z,21.80
2022-08-05T05:38:31.698Z,21.90
2022-08-05T05:41:19.725Z,21.90
2022-08-05T05:44:36.897Z,21.90
2022-08-05T05:47:22.118Z,22.00
2022-08-05T05:50:16.285Z,22.00
2022-08-05T05:53:21.254Z,22.10
2022-08-05T05:56:11.300Z,22.20
2022-08-05T05:59:03.233Z,22.20
2022-08-05T06:01:57.625Z,22.20
2022-08-05T06:04:49.212Z,22.30
2022-08-05T06:07:41.760Z,22.30
2022-08-05T06:10:36.290Z,22.30
2022-08-05T06:13:26.387Z,22.30
2022-08-05T06:16:29.864Z,22.40
2022-08-05T06:19:34.184Z,22.40
2022-08-05T06:22:25.848Z,22.40
2022-08-05T06:25:24.704Z,22.40
2022-08-05T06:28:22.898Z,22.40
2022-08-05T06:31:18.226Z,22.40
2022-08-05T06:34:10.421Z,22.40
2022-08-05T06:37:01.417Z,22.40
2022-08-05T06:39:49.712Z,22.40
2022-08-05T06:42:39.914Z,22.40
2022-08-05T06:46:03.346Z,22.40
2022-08-05T06:48:55.852Z,22.40
2022-08-05T06:51:44.993Z,22.40
2022-08-05T06:54:34.954Z,22.40
2022-08-05T06:57:57.444Z,22.40
2022-08-05T07:00:34.043Z,22.40
2022-08-05T07:03:27.931Z,22.40
2022-08-05T07:06:20.889Z,22.40
2022-08-05T07:09:09.265Z,22.30
2022-08-05T07:12:00.221Z,22.30
2022-08-05T07:15:06.253Z,22.30
2022-08-05T07:18:09.803Z,22.30
2022-08-05T07:21:05.346Z,22.20
2022-08-05T07:23:54.150Z,22.10
2022-08-05T07:26:43.188Z,22.10
2022-08-05T07:30:24.007Z,22.10
2022-08-05T07:32:41.677Z,22.10
2022-08-05T07:35:55.869Z,22.10
2022-08-05T07:38:43.120Z,22.10
2022-08-05T07:42:09.177Z,22.00
2022-08-05T07:44:43.225Z,22.00
2022-08-05T07:47:42.054Z,22.00
2022-08-05T07:50:32.494Z,22.00
2022-08-05T07:53:21.927Z,22.00
2022-08-05T07:57:00.264Z,22.10
2022-08-05T07:59:38.625Z,22.10
2022-08-05T08:02:31.393Z,22.10
2022-08-05T08:05:39.650Z,22.10
2022-08-05T08:08:28.766Z,22.00
2022-08-05T08:11:17.680Z,21.90
2022-08-05T08:14:18.337Z,21.90
2022-08-05T08:17:10.866Z,22.00
2022-08-05T08:20:21.653Z,22.00
2022-08-05T08:24:03.164Z,22.00
2022-08-05T08:26:29.518Z,22.00
2022-08-05T08:30:03.067Z,22.00
2022-08-05T08:32:28.395Z,22.00
2022-08-05T08:35:18.699Z,22.00
2022-08-05T08:38:07.492Z,22.00
2022-08-05T08:40:57.161Z,22.00
2022-08-05T08:45:17.714Z,22.00
2022-08-05T08:46:55.987Z,22.00
2022-08-05T08:50:23.022Z,22.00
2022-08-05T08:53:02.449Z,22.00
2022-08-05T08:56:03.003Z,22.10
2022-08-05T08:58:59.418Z,22.10
2022-08-05T09:01:48.897Z,22.00
2022-08-05T09:04:58.410Z,22.00
2022-08-05T09:07:57.293Z,21.90
2022-08-05T09:10:48.581Z,21.90
2022-08-05T09:14:00.937Z,21.80
2022-08-05T09:16:48.704Z,21.80
2022-08-05T09:20:01.777Z,21.90
2022-08-05T09:23:19.612Z,22.00
2022-08-05T09:26:15.841Z,22.00
2022-08-05T09:29:10.727Z,22.00
2022-08-05T09:32:41.353Z,22.10
2022-08-05T09:35:26.817Z,22.10
2022-08-05T09:38:27.571Z,22.10
2022-08-05T09:41:19.335Z,22.00
2022-08-05T09:44:07.547Z,21.90
2022-08-05T09:47:10.498Z,22.00
2022-08-05T09:50:03.577Z,21.90
2022-08-05T09:52:59.403Z,21.90
2022-08-05T09:55:56.894Z,22.00
2022-08-05T09:59:00.452Z,22.10
2022-08-05T10:01:49.218Z,22.10
2022-08-05T10:04:48.457Z,22.00
2022-08-05T10:08:10.556Z,22.10
2022-08-05T10:10:58.946Z,22.10
2022-08-05T10:13:49.203Z,22.10
2022-08-05T10:16:52.494Z,22.10
2022-08-05T10:20:03.613Z,22.20
2022-08-05T10:22:51.531Z,22.30
2022-08-05T10:25:39.903Z,22.20
2022-08-05T10:28:29.756Z,22.20
2022-08-05T10:32:49.208Z,22.10
2022-08-05T10:34:30.057Z,22.20
2022-08-05T10:37:20.110Z,22.20
2022-08-05T10:40:20.090Z,22.30
2022-08-05T10:43:31.022Z,22.30
2022-08-05T10:46:24.847Z,22.30
2022-08-05T10:49:16.615Z,22.30
2022-08-05T10:52:10.506Z,22.40
2022-08-05T10:55:05.911Z,22.40
2022-08-05T10:58:09.701Z,22.40
2022-08-05T11:01:03.086Z,22.40
2022-08-05T11:04:11.828Z,22.30
2022-08-05T11:07:11.450Z,22.10
2022-08-05T11:10:04.006Z,22.20
2022-08-05T11:13:01.286Z,22.30
2022-08-05T11:16:00.174Z,22.30
2022-08-05T11:20:10.938Z,22.30
2022-08-05T11:22:43.658Z,22.30
2022-08-05T11:26:05.595Z,22.40
2022-08-05T11:28:54.032Z,22.30
2022-08-05T11:31:54.511Z,22.40
2022-08-05T11:34:51.303Z,22.40
2022-08-05T11:38:28.890Z,22.40
2022-08-05T11:41:34.226Z,22.40
2022-08-05T11:44:31.197Z,22.40
2022-08-05T11:47:49.639Z,22.40
2022-08-05T11:50:42.060Z,22.50
2022-08-05T11:53:40.762Z,22.50
2022-08-05T11:56:45.141Z,22.50
2022-08-05T11:59:41.403Z,22.50
2022-08-05T12:02:40.122Z,22.50
2022-08-05T12:05:32.363Z,22.50
2022-08-05T12:08:28.174Z,22.50
2022-08-05T12:11:23.491Z,22.50
2022-08-05T12:14:17.002Z,22.50
2022-08-05T12:18:00.716Z,22.50
2022-08-05T12:20:26.401Z,22.40
2022-08-05T12:23:17.526Z,22.40
2022-08-05T12:26:06.208Z,22.40
2022-08-05T12:28:56.722Z,22.40
2022-08-05T12:31:53.460Z,22.40
2022-08-05T12:34:44.585Z,22.50
2022-08-05T12:37:33.091Z,22.60
2022-08-05T12:40:26.487Z,22.60
2022-08-05T12:43:20.927Z,22.60
2022-08-05T12:46:29.472Z,22.60
2022-08-05T12:49:19.205Z,22.60
2022-08-05T12:52:22.847Z,22.60
2022-08-05T12:55:22.208Z,22.60
2022-08-05T12:58:49.716Z,22.60
2022-08-05T13:02:03.285Z,22.60
2022-08-05T13:04:54.345Z,22.60
2022-08-05T13:07:59.484Z,22.60
2022-08-05T13:10:50.482Z,22.60
2022-08-05T13:14:05.634Z,22.60
2022-08-05T13:16:56.539Z,22.50
2022-08-05T13:20:00.825Z,22.50
2022-08-05T13:22:51.365Z,22.60
2022-08-05T13:25:52.120Z,22.50
2022-08-05T13:28:48.073Z,22.50
2022-08-05T13:32:04.943Z,22.50
2022-08-05T13:34:52.601Z,22.60
2022-08-05T13:37:40.918Z,22.60
2022-08-05T13:40:47.964Z,22.60
2022-08-05T13:43:45.098Z,22.60
2022-08-05T13:47:04.732Z,22.60
2022-08-05T13:49:53.775Z,22.60
2022-08-05T13:52:42.637Z,22.60
2022-08-05T13:55:41.421Z,22.60
2022-08-05T13:58:38.115Z,22.60
2022-08-05T14:01:44.172Z,22.60
2022-08-05T14:04:55.274Z,22.60
2022-08-05T14:08:00.328Z,22.60
2022-08-05T14:11:03.214Z,22.60
2022-08-05T14:14:06.058Z,22.60
2022-08-05T14:16:55.294Z,22.60
2022-08-05T14:19:55.301Z,22.60
2022-08-05T14:22:50.285Z,22.60
2022-08-05T14:25:44.878Z,22.60
2022-08-05T14:28:34.104Z,22.60
2022-08-05T14:32:03.641Z,22.70
2022-08-05T14:34:35.467Z,22.60
2022-08-05T14:37:24.021Z,22.60
2022-08-05T14:40:34.050Z,22.60
2022-08-05T14:43:22.480Z,22.60
2022-08-05T14:46:31.876Z,22.60
2022-08-05T14:49:23.970Z,22.60
2022-08-05T14:52:52.460Z,22.60
2022-08-05T14:55:42.365Z,22.60
2022-08-05T14:58:32.047Z,22.60
2022-08-05T15:01:47.083Z,22.60
2022-08-05T15:04:29.663Z,22.60
2022-08-05T15:08:09.113Z,22.60
2022-08-05T15:10:28.800Z,22.60
2022-08-05T15:13:18.837Z,22.60
2022-08-05T15:16:13.336Z,22.60
2022-08-05T15:19:01.840Z,22.60
2022-08-05T15:21:50.565Z,22.60
2022-08-05T15:24:39.733Z,22.60
2022-08-05T15:27:32.130Z,22.60
2022-08-05T15:30:25.799Z,22.60
2022-08-05T15:33:56.961Z,22.60
2022-08-05T15:36:24.442Z,22.60
2022-08-05T15:40:59.388Z,22.60
2022-08-05T15:42:54.884Z,22.60
2022-08-05T15:45:38.413Z,22.70
2022-08-05T15:48:27.230Z,22.60
2022-08-05T15:51:16.013Z,22.60
2022-08-05T15:54:04.512Z,22.60
2022-08-05T15:56:57.569Z,22.60
2022-08-05T15:59:45.828Z,22.60
2022-08-05T16:02:36.291Z,22.60
2022-08-05T16:05:28.518Z,22.70
2022-08-05T16:08:17.632Z,22.70
2022-08-05T16:11:08.119Z,22.70
2022-08-05T16:13:56.945Z,22.70
2022-08-05T16:16:45.087Z,22.70
2022-08-05T16:20:04.502Z,22.70
2022-08-05T16:22:44.798Z,22.80
2022-08-05T16:25:34.665Z,22.80
2022-08-05T16:28:24.917Z,22.80
2022-08-05T16:31:16.078Z,22.80
2022-08-05T16:34:04.260Z,22.80
2022-08-05T16:36:56.322Z,22.80
2022-08-05T16:40:04.626Z,22.70
2022-08-05T16:42:54.239Z,22.70
2022-08-05T16:46:03.582Z,22.70
2022-08-05T16:48:50.633Z,22.70
2022-08-05T16:51:50.086Z,22.70
2022-08-05T16:54:41.224Z,22.60
2022-08-05T16:58:00.065Z,22.70
2022-08-05T17:00:38.854Z,22.60
2022-08-05T17:03:28.455Z,22.60
2022-08-05T17:06:19.815Z,22.60
2022-08-05T17:09:08.193Z,22.60
2022-08-05T17:11:59.910Z,22.60
2022-08-05T17:14:48.462Z,22.50
2022-08-05T17:17:42.179Z,22.50
2022-08-05T17:20:31.077Z,22.50
2022-08-05T17:24:05.827Z,22.40
2022-08-05T17:26:28.425Z,22.40
2022-08-05T17:29:22.316Z,22.40
2022-08-05T17:32:17.102Z,22.30
2022-08-05T17:35:07.406Z,22.30
2022-08-05T17:38:00.630Z,22.20
2022-08-05T17:40:54.418Z,22.10
2022-08-05T17:43:46.939Z,22.10
2022-08-05T17:46:40.705Z,22.10
2022-08-05T17:49:59.543Z,22.00
2022-08-05T17:52:52.987Z,22.00
2022-08-05T17:55:43.055Z,21.90
2022-08-05T17:58:36.841Z,21.90
2022-08-05T18:01:25.197Z,21.90
2022-08-05T18:04:15.714Z,21.90
2022-08-05T18:07:12.300Z,21.80
2022-08-05T18:10:08.999Z,21.80
2022-08-05T18:12:58.633Z,21.80
2022-08-05T18:15:47.137Z,21.70
2022-08-05T18:18:39.910Z,21.70
2022-08-05T18:22:08.369Z,21.70
2022-08-05T18:24:37.990Z,21.70
2022-08-05T18:27:28.148Z,21.60
2022-08-05T18:30:16.292Z,21.60
2022-08-05T18:33:06.228Z,21.60
2022-08-05T18:36:03.868Z,21.50
2022-08-05T18:38:57.244Z,21.50
2022-08-05T18:41:56.809Z,21.50
2022-08-05T18:44:56.268Z,21.50
2022-08-05T18:47:44.351Z,21.50
2022-08-05T18:50:55.229Z,21.40
2022-08-05T18:53:50.900Z,21.40
2022-08-05T18:56:40.798Z,21.40
2022-08-05T18:59:43.129Z,21.40
2022-08-05T19:02:38.351Z,21.40
2022-08-05T19:06:11.151Z,21.40
2022-08-05T19:08:35.928Z,21.40
2022-08-05T19:11:28.554Z,21.40
2022-08-05T19:14:59.194Z,21.40
2022-08-05T19:18:08.498Z,21.40
2022-08-05T19:20:47.501Z,21.50
2022-08-05T19:24:07.615Z,21.50
2022-08-05T19:26:54.761Z,21.60
2022-08-05T19:29:46.831Z,21.60
2022-08-05T19:32:38.126Z,21.60
2022-08-05T19:35:26.824Z,21.70
2022-08-05T19:38:36.313Z,21.70
2022-08-05T19:41:34.706Z,21.70
2022-08-05T19:44:37.388Z,21.70
2022-08-05T19:47:37.550Z,21.70
2022-08-05T19:50:26.496Z,21.70
2022-08-05T19:53:14.398Z,21.70
2022-08-05T19:56:14.355Z,21.70
2022-08-05T19:59:51.606Z,21.70
2022-08-05T20:02:18.870Z,21.70
2022-08-05T20:05:16.582Z,21.70
2022-08-05T20:08:13.053Z,21.70
2022-08-05T20:11:02.950Z,21.70
2022-08-05T20:13:58.302Z,21.70
2022-08-05T20:17:03.622Z,21.70
2022-08-05T20:19:57.546Z,21.70
2022-08-05T20:22:47.154Z,21.70
2022-08-05T20:25:39.905Z,21.70
2022-08-05T20:28:28.514Z,21.70
2022-08-05T20:31:17.970Z,21.70
2022-08-05T20:34:10.668Z,21.70
2022-08-05T20:36:59.826Z,21.70
2022-08-05T20:39:51.724Z,21.70
2022-08-05T20:42:40.443Z,21.70
2022-08-05T20:45:56.625Z,21.70
2022-08-05T20:48:41.066Z,21.70
2022-08-05T20:51:30.740Z,21.70
2022-08-05T20:54:20.811Z,21.70
2022-08-05T20:57:10.553Z,21.70
2022-08-05T21:00:21.112Z,21.70
2022-08-05T21:03:11.898Z,21.70
2022-08-05T21:06:05.758Z,21.70
2022-08-05T21:09:14.898Z,21.70
2022-08-05T21:12:10.319Z,21.70
2022-08-05T21:15:09.373Z,21.70
2022-08-05T21:17:57.885Z,21.70
2022-08-05T21:20:45.912Z,21.70
2022-08-05T21:23:37.107Z,21.70
2022-08-05T21:26:26.465Z,21.70
2022-08-05T21:29:18.451Z,21.70
2022-08-05T21:32:08.787Z,21.70
2022-08-05T21:35:16.778Z,21.70
2022-08-05T21:38:05.961Z,21.70
2022-08-05T21:40:56.518Z,21.70
2022-08-05T21:43:44.678Z,21.70
2022-08-05T21:46:50.234Z,21.70
2022-08-05T21:49:59.476Z,21.70
2022-08-05T21:52:49.988Z,21.70
2022-08-05T21:56:01.362Z,21.70
2022-08-05T21:58:57.050Z,21.70
2022-08-05T22:01:45.977Z,21.70
2022-08-05T22:04:35.553Z,21.70
2022-08-05T22:07:39.994Z,21.60
2022-08-05T22:10:33.915Z,21.70
2022-08-05T22:14:05.849Z,21.70
2022-08-05T22:16:41.853Z,21.70
2022-08-05T22:20:01.495Z,21.70
2022-08-05T22:23:16.783Z,21.70
2022-08-05T22:26:23.684Z,21.70
2022-08-05T22:29:13.153Z,21.70
2022-08-05T22:32:02.847Z,21.60
2022-08-05T22:34:52.224Z,21.70
2022-08-05T22:37:59.408Z,21.70
2022-08-05T22:40:54.892Z,21.70
2022-08-05T22:43:43.325Z,21.70
2022-08-05T22:46:32.317Z,21.70
2022-08-05T22:50:17.596Z,21.70
2022-08-05T22:52:32.583Z,21.70
2022-08-05T22:55:24.667Z,21.70
2022-08-05T22:58:16.220Z,21.60
2022-08-05T23:01:17.288Z,21.70
2022-08-05T23:04:09.554Z,21.70
2022-08-05T23:06:58.722Z,21.70
2022-08-05T23:09:58.456Z,21.70
2022-08-05T23:12:54.767Z,21.70
2022-08-05T23:15:45.675Z,21.70
2022-08-05T23:18:38.686Z,21.70
2022-08-05T23:21:27.368Z,21.70
2022-08-05T23:24:31.636Z,21.70
2022-08-05T23:27:22.767Z,21.70
2022-08-05T23:30:13.329Z,21.60
2022-08-05T23:33:03.603Z,21.70
2022-08-05T23:35:52.193Z,21.70
2022-08-05T23:38:45.413Z,21.70
2022-08-05T23:41:37.336Z,21.70
2022-08-05T23:44:31.251Z,21.70
2022-08-05T23:47:21.066Z,21.70
2022-08-05T23:50:12.901Z,21.70
2022-08-05T23:53:01.032Z,21.70
2022-08-05T23:55:51.309Z,21.60
2022-08-05T23:58:41.574Z,21.60
